createdAt,value
2019-04-30T00:01:55.701Z,100.00
2019-04-30T00:04:29.934Z,100.00
2019-04-30T00:06:58.902Z,100.00
2019-04-30T00:09:28.728Z,100.00
2019-04-30T00:12:01.054Z,100.00
2019-04-30T00:14:37.284Z,100.00
2019-04-30T00:16:59.818Z,100.00
2019-04-30T00:19:28.980Z,100.00
2019-04-30T00:22:00.447Z,100.00
2019-04-30T00:24:29.189Z,100.00
2019-04-30T00:26:58.666Z,100.00
2019-04-30T00:29:30.844Z,100.00
2019-04-30T00:32:04.394Z,100.00
2019-04-30T00:34:30.882Z,100.00
2019-04-30T00:37:00.714Z,100.00
2019-04-30T00:39:29.955Z,100.00
2019-04-30T00:41:59.077Z,100.00
2019-04-30T00:44:28.590Z,100.00
2019-04-30T00:47:00.595Z,100.00
2019-04-30T00:49:28.774Z,100.00
2019-04-30T00:51:58.349Z,100.00
2019-04-30T00:54:30.662Z,100.00
2019-04-30T00:57:03.694Z,100.00
2019-04-30T00:59:29.466Z,100.00
2019-04-30T01:02:11.471Z,100.00
2019-04-30T01:04:49.538Z,100.00
2019-04-30T01:07:18.804Z,100.00
2019-04-30T01:09:49.853Z,100.00
2019-04-30T01:12:27.587Z,100.00
2019-04-30T01:14:49.968Z,100.00
2019-04-30T01:17:19.150Z,100.00
2019-04-30T01:19:51.194Z,100.00
2019-04-30T01:22:27.758Z,100.00
2019-04-30T01:24:50.292Z,100.00
2019-04-30T01:27:19.915Z,100.00
2019-04-30T01:29:49.060Z,100.00
2019-04-30T01:32:20.986Z,100.00
2019-04-30T01:34:53.845Z,100.00
2019-04-30T01:37:24.920Z,100.00
2019-04-30T01:39:51.146Z,100.00
2019-04-30T01:42:20.278Z,100.00
2019-04-30T01:44:53.595Z,100.00
2019-04-30T01:47:21.470Z,100.00
2019-04-30T01:49:51.230Z,100.00
2019-04-30T01:52:20.426Z,100.00
2019-04-30T01:54:49.587Z,100.00
2019-04-30T01:57:36.762Z,100.00
2019-04-30T02:00:34.700Z,100.00
2019-04-30T02:03:03.847Z,100.00
2019-04-30T02:05:32.994Z,100.00
2019-04-30T02:08:02.188Z,100.00
2019-04-30T02:10:31.328Z,100.00
2019-04-30T02:13:00.569Z,100.00
2019-04-30T02:15:29.720Z,100.00
2019-04-30T02:17:58.975Z,100.00
2019-04-30T02:20:28.791Z,100.00
2019-04-30T02:22:58.655Z,100.00
2019-04-30T02:25:29.566Z,100.00
2019-04-30T02:27:59.270Z,100.00
2019-04-30T02:30:30.996Z,100.00
2019-04-30T02:33:00.576Z,100.00
2019-04-30T02:35:52.183Z,100.00
2019-04-30T02:38:25.708Z,100.00
2019-04-30T02:40:55.255Z,100.00
2019-04-30T02:43:25.690Z,100.00
2019-04-30T02:45:59.966Z,100.00
2019-04-30T02:48:31.425Z,100.00
2019-04-30T02:51:03.515Z,100.00
2019-04-30T02:54:06.618Z,100.00
2019-04-30T02:56:35.788Z,100.00
2019-04-30T02:59:05.076Z,100.00
2019-04-30T03:01:34.398Z,100.00
2019-04-30T03:04:03.730Z,100.00
2019-04-30T03:06:32.910Z,100.00
2019-04-30T03:09:02.096Z,100.00
2019-04-30T03:11:31.247Z,100.00
2019-04-30T03:14:00.419Z,100.00
2019-04-30T03:16:39.958Z,100.00
2019-04-30T03:19:29.320Z,100.00
2019-04-30T03:22:05.163Z,100.00
2019-04-30T03:24:34.324Z,100.00
2019-04-30T03:27:03.550Z,100.00
2019-04-30T03:29:32.820Z,100.00
2019-04-30T03:32:03.481Z,100.00
2019-04-30T03:34:33.377Z,100.00
2019-04-30T03:37:02.711Z,100.00
2019-04-30T03:39:34.043Z,100.00
2019-04-30T03:42:02.792Z,100.00
2019-04-30T03:44:32.518Z,100.00
2019-04-30T03:47:05.066Z,100.00
2019-04-30T03:49:34.217Z,100.00
2019-04-30T03:52:03.434Z,100.00
2019-04-30T03:54:32.573Z,100.00
2019-04-30T03:57:01.763Z,100.00
2019-04-30T03:59:31.029Z,100.00
2019-04-30T04:02:30.197Z,100.00
2019-04-30T04:05:10.329Z,100.00
2019-04-30T04:07:59.843Z,100.00
2019-04-30T04:10:40.341Z,100.00
2019-04-30T04:13:10.349Z,100.00
2019-04-30T04:15:40.146Z,100.00
2019-04-30T04:18:10.718Z,100.00
2019-04-30T04:20:42.854Z,100.00
2019-04-30T04:23:11.258Z,100.00
2019-04-30T04:25:40.421Z,100.00
2019-04-30T04:28:10.045Z,100.00
2019-04-30T04:30:42.897Z,100.00
2019-04-30T04:33:10.547Z,100.00
2019-04-30T04:35:40.087Z,100.00
2019-04-30T04:38:12.237Z,100.00
2019-04-30T04:40:41.968Z,100.00
2019-04-30T04:43:11.150Z,100.00
2019-04-30T04:45:43.690Z,100.00
2019-04-30T04:48:11.531Z,100.00
2019-04-30T04:50:40.665Z,100.00
2019-04-30T04:53:11.561Z,100.00
2019-04-30T04:55:40.958Z,100.00
2019-04-30T04:58:12.968Z,100.00
2019-04-30T05:00:41.083Z,100.00
2019-04-30T05:03:29.879Z,100.00
2019-04-30T05:06:02.276Z,100.00
2019-04-30T05:08:30.193Z,100.00
2019-04-30T05:10:59.508Z,100.00
2019-04-30T05:13:29.148Z,100.00
2019-04-30T05:15:59.421Z,100.00
2019-04-30T05:18:29.107Z,100.00
2019-04-30T05:20:59.045Z,100.00
2019-04-30T05:23:29.827Z,100.00
2019-04-30T05:25:59.180Z,100.00
2019-04-30T05:28:30.125Z,100.00
2019-04-30T05:30:59.590Z,100.00
2019-04-30T05:33:28.790Z,100.00
2019-04-30T05:35:59.446Z,100.00
2019-04-30T05:38:31.268Z,100.00
2019-04-30T05:40:59.825Z,100.00
2019-04-30T05:43:29.121Z,100.00
2019-04-30T05:45:58.777Z,100.00
2019-04-30T05:48:28.768Z,100.00
2019-04-30T05:50:59.082Z,100.00
2019-04-30T05:53:28.770Z,100.00
2019-04-30T05:55:59.340Z,100.00
2019-04-30T05:58:30.025Z,99.06
2019-04-30T06:00:59.788Z,96.39
2019-04-30T06:03:32.912Z,95.03
2019-04-30T06:05:59.986Z,93.37
2019-04-30T06:08:39.171Z,93.05
2019-04-30T06:11:11.299Z,93.30
2019-04-30T06:13:51.226Z,92.84
2019-04-30T06:16:22.419Z,92.35
2019-04-30T06:18:53.162Z,90.98
2019-04-30T06:21:22.374Z,91.25
2019-04-30T06:23:51.865Z,91.26
2019-04-30T06:26:21.434Z,93.33
2019-04-30T06:28:50.954Z,92.01
2019-04-30T06:31:31.816Z,91.51
2019-04-30T06:33:51.204Z,92.34
2019-04-30T06:36:20.709Z,93.00
2019-04-30T06:38:50.081Z,93.40
2019-04-30T06:41:19.796Z,93.45
2019-04-30T06:43:49.951Z,94.46
2019-04-30T06:46:19.135Z,94.44
2019-04-30T06:48:51.017Z,94.02
2019-04-30T06:51:20.245Z,93.68
2019-04-30T06:53:51.250Z,94.00
2019-04-30T06:56:20.358Z,93.92
2019-04-30T06:58:52.362Z,93.59
2019-04-30T07:01:20.513Z,94.50
2019-04-30T07:03:49.707Z,92.52
2019-04-30T07:06:29.214Z,91.39
2019-04-30T07:09:33.532Z,90.58
2019-04-30T07:12:06.588Z,90.69
2019-04-30T07:14:35.755Z,89.30
2019-04-30T07:17:05.242Z,88.59
2019-04-30T07:19:52.457Z,88.50
2019-04-30T07:22:05.861Z,87.86
2019-04-30T07:24:35.001Z,87.55
2019-04-30T07:27:04.222Z,86.97
2019-04-30T07:29:33.498Z,88.67
2019-04-30T07:32:02.704Z,87.25
2019-04-30T07:34:36.923Z,87.40
2019-04-30T07:37:15.914Z,86.98
2019-04-30T07:39:33.962Z,87.70
2019-04-30T07:42:03.463Z,88.18
2019-04-30T07:44:36.478Z,87.61
2019-04-30T07:47:03.623Z,88.66
2019-04-30T07:49:46.979Z,87.98
2019-04-30T07:52:04.731Z,87.29
2019-04-30T07:54:34.221Z,85.83
2019-04-30T07:57:03.578Z,82.74
2019-04-30T07:59:32.795Z,82.86
2019-04-30T08:02:10.045Z,81.47
2019-04-30T08:04:51.323Z,82.09
2019-04-30T08:07:20.822Z,80.60
2019-04-30T08:09:50.148Z,80.06
2019-04-30T08:12:28.206Z,79.09
2019-04-30T08:14:50.552Z,75.32
2019-04-30T08:17:19.728Z,75.32
2019-04-30T08:19:50.738Z,75.26
2019-04-30T08:22:22.842Z,73.39
2019-04-30T08:24:52.045Z,71.54
2019-04-30T08:27:21.316Z,71.08
2019-04-30T08:29:50.513Z,71.14
2019-04-30T08:32:19.697Z,70.68
2019-04-30T08:34:50.124Z,71.32
2019-04-30T08:37:20.251Z,70.23
2019-04-30T08:39:49.832Z,63.76
2019-04-30T08:42:30.738Z,64.60
2019-04-30T08:44:50.416Z,66.84
2019-04-30T08:47:21.308Z,63.72
2019-04-30T08:49:50.835Z,63.30
2019-04-30T08:52:20.506Z,62.63
2019-04-30T08:54:49.888Z,61.51
2019-04-30T08:57:19.415Z,60.52
2019-04-30T08:59:49.485Z,60.28
2019-04-30T09:02:19.690Z,62.83
2019-04-30T09:04:52.490Z,61.70
2019-04-30T09:07:21.668Z,60.73
2019-04-30T09:09:50.861Z,55.47
2019-04-30T09:12:20.010Z,56.12
2019-04-30T09:14:49.281Z,55.29
2019-04-30T09:17:19.875Z,52.83
2019-04-30T09:19:49.199Z,50.83
2019-04-30T09:22:19.488Z,57.12
2019-04-30T09:24:49.748Z,61.30
2019-04-30T09:27:19.655Z,60.06
2019-04-30T09:29:49.414Z,59.11
2019-04-30T09:32:19.442Z,57.18
2019-04-30T09:34:49.022Z,60.86
2019-04-30T09:37:18.825Z,59.43
2019-04-30T09:39:49.413Z,56.90
2019-04-30T09:42:19.580Z,52.12
2019-04-30T09:44:49.394Z,48.57
2019-04-30T09:47:20.104Z,46.88
2019-04-30T09:49:49.671Z,46.86
2019-04-30T09:52:19.831Z,45.78
2019-04-30T09:54:50.335Z,41.96
2019-04-30T09:57:20.008Z,42.69
2019-04-30T09:59:49.565Z,44.28
2019-04-30T10:02:19.254Z,44.02
2019-04-30T10:04:48.913Z,44.08
2019-04-30T10:07:19.518Z,40.87
2019-04-30T10:09:50.877Z,47.13
2019-04-30T10:12:19.759Z,45.74
2019-04-30T10:14:49.407Z,43.25
2019-04-30T10:17:38.296Z,46.94
2019-04-30T10:20:11.205Z,50.61
2019-04-30T10:22:40.426Z,52.36
2019-04-30T10:25:10.298Z,48.35
2019-04-30T10:27:39.561Z,45.04
2019-04-30T10:30:09.903Z,42.75
2019-04-30T10:32:39.085Z,40.63
2019-04-30T10:35:08.483Z,42.38
2019-04-30T10:37:38.748Z,45.42
2019-04-30T10:40:10.288Z,47.04
2019-04-30T10:42:39.597Z,49.16
2019-04-30T10:45:09.980Z,49.14
2019-04-30T10:47:39.516Z,48.45
2019-04-30T10:50:09.910Z,53.80
2019-04-30T10:52:39.457Z,54.51
2019-04-30T10:55:09.387Z,51.92
2019-04-30T10:57:39.675Z,53.29
2019-04-30T11:00:13.956Z,54.13
2019-04-30T11:02:43.363Z,50.12
2019-04-30T11:05:13.068Z,46.31
2019-04-30T11:07:42.512Z,40.32
2019-04-30T11:10:12.096Z,46.23
2019-04-30T11:12:41.306Z,44.03
2019-04-30T11:15:10.696Z,42.62
2019-04-30T11:17:40.146Z,45.91
2019-04-30T11:20:11.406Z,41.83
2019-04-30T11:22:41.068Z,41.02
2019-04-30T11:25:12.385Z,42.23
2019-04-30T11:27:42.467Z,39.10
2019-04-30T11:30:21.399Z,40.84
2019-04-30T11:32:43.512Z,38.48
2019-04-30T11:35:13.838Z,34.30
2019-04-30T11:37:43.035Z,34.02
2019-04-30T11:40:13.681Z,38.48
2019-04-30T11:42:42.933Z,43.17
2019-04-30T11:45:14.893Z,41.39
2019-04-30T11:47:53.070Z,41.14
2019-04-30T11:50:15.446Z,38.59
2019-04-30T11:52:44.620Z,37.08
2019-04-30T11:55:13.993Z,35.37
2019-04-30T11:57:43.199Z,35.27
2019-04-30T12:00:18.814Z,35.60
2019-04-30T12:02:52.644Z,36.41
2019-04-30T12:05:20.827Z,33.50
2019-04-30T12:07:55.506Z,32.14
2019-04-30T12:10:52.791Z,32.08
2019-04-30T12:13:32.857Z,33.71
2019-04-30T12:16:02.412Z,35.18
2019-04-30T12:18:31.643Z,37.94
2019-04-30T12:21:01.163Z,36.55
2019-04-30T12:23:30.435Z,35.21
2019-04-30T12:26:02.655Z,34.97
2019-04-30T12:28:30.936Z,39.94
2019-04-30T12:31:00.177Z,38.46
2019-04-30T12:33:29.499Z,38.39
2019-04-30T12:35:59.621Z,37.19
2019-04-30T12:38:29.834Z,34.63
2019-04-30T12:40:59.244Z,33.55
2019-04-30T12:43:28.583Z,32.74
2019-04-30T12:46:03.507Z,34.22
2019-04-30T12:48:42.827Z,35.62
2019-04-30T12:51:46.029Z,34.76
2019-04-30T12:54:17.031Z,34.53
2019-04-30T12:57:14.104Z,32.87
2019-04-30T12:59:43.321Z,34.46
2019-04-30T13:02:12.835Z,33.94
2019-04-30T13:04:42.046Z,32.03
2019-04-30T13:07:12.070Z,32.14
2019-04-30T13:09:42.129Z,32.57
2019-04-30T13:12:12.365Z,33.16
2019-04-30T13:14:51.333Z,33.68
2019-04-30T13:17:13.174Z,32.50
2019-04-30T13:19:42.435Z,33.52
2019-04-30T13:22:11.648Z,34.21
2019-04-30T13:24:40.961Z,33.05
2019-04-30T13:27:10.215Z,34.57
2019-04-30T13:29:49.098Z,32.82
2019-04-30T13:32:29.580Z,33.12
2019-04-30T13:34:56.197Z,31.90
2019-04-30T13:37:28.959Z,35.18
2019-04-30T13:40:15.373Z,31.95
2019-04-30T13:42:48.823Z,31.74
2019-04-30T13:45:18.652Z,35.63
2019-04-30T13:47:49.059Z,33.44
2019-04-30T13:50:19.713Z,32.48
2019-04-30T13:52:49.438Z,32.78
2019-04-30T13:55:19.168Z,32.29
2019-04-30T13:57:48.569Z,34.47
2019-04-30T14:00:22.897Z,36.49
2019-04-30T14:03:00.604Z,35.86
2019-04-30T14:05:29.528Z,35.24
2019-04-30T14:08:22.207Z,34.94
2019-04-30T14:10:51.378Z,34.08
2019-04-30T14:13:21.461Z,35.20
2019-04-30T14:15:50.820Z,36.63
2019-04-30T14:18:28.510Z,37.38
2019-04-30T14:20:51.045Z,36.71
2019-04-30T14:23:20.223Z,35.93
2019-04-30T14:25:56.382Z,35.01
2019-04-30T14:28:20.349Z,35.16
2019-04-30T14:30:49.859Z,34.17
2019-04-30T14:33:26.354Z,35.14
2019-04-30T14:35:51.990Z,34.47
2019-04-30T14:38:21.131Z,33.46
2019-04-30T14:40:51.257Z,32.27
2019-04-30T14:43:51.018Z,31.12
2019-04-30T14:46:39.804Z,31.08
2019-04-30T14:49:32.576Z,31.99
2019-04-30T14:52:02.533Z,33.10
2019-04-30T14:54:50.240Z,30.47
2019-04-30T14:57:46.103Z,30.06
2019-04-30T15:00:32.988Z,31.81
2019-04-30T15:03:09.362Z,33.38
2019-04-30T15:05:48.343Z,31.68
2019-04-30T15:08:11.333Z,30.70
2019-04-30T15:10:40.687Z,30.89
2019-04-30T15:13:09.947Z,30.88
2019-04-30T15:15:39.299Z,31.40
2019-04-30T15:18:09.210Z,32.01
2019-04-30T15:20:39.822Z,32.62
2019-04-30T15:23:18.995Z,32.88
2019-04-30T15:25:48.682Z,33.10
2019-04-30T15:28:17.907Z,33.24
2019-04-30T15:30:48.807Z,32.14
2019-04-30T15:33:40.017Z,29.72
2019-04-30T15:36:09.782Z,29.40
2019-04-30T15:38:57.284Z,28.56
2019-04-30T15:41:26.544Z,28.35
2019-04-30T15:43:55.705Z,28.99
2019-04-30T15:46:24.914Z,28.45
2019-04-30T15:48:54.111Z,29.83
2019-04-30T15:51:23.352Z,28.88
2019-04-30T15:53:52.498Z,27.99
2019-04-30T15:56:34.121Z,28.32
2019-04-30T15:59:24.078Z,28.31
2019-04-30T16:01:55.758Z,28.96
2019-04-30T16:04:38.457Z,28.60
2019-04-30T16:07:08.477Z,29.14
2019-04-30T16:09:44.584Z,29.43
2019-04-30T16:12:32.717Z,28.73
2019-04-30T16:15:02.000Z,28.68
2019-04-30T16:17:31.238Z,32.74
2019-04-30T16:20:00.500Z,32.34
2019-04-30T16:22:29.835Z,32.28
2019-04-30T16:25:00.648Z,32.33
2019-04-30T16:27:30.013Z,31.42
2019-04-30T16:29:59.555Z,30.31
2019-04-30T16:32:29.370Z,29.93
2019-04-30T16:34:59.257Z,29.95
2019-04-30T16:37:28.828Z,29.09
2019-04-30T16:39:58.137Z,29.35
2019-04-30T16:42:29.071Z,27.84
2019-04-30T16:45:00.556Z,27.51
2019-04-30T16:47:29.763Z,27.49
2019-04-30T16:49:59.163Z,27.44
2019-04-30T16:52:29.421Z,27.01
2019-04-30T16:54:58.985Z,28.12
2019-04-30T16:57:30.094Z,28.70
2019-04-30T16:59:59.412Z,28.37
2019-04-30T17:02:30.580Z,27.26
2019-04-30T17:05:04.539Z,28.06
2019-04-30T17:07:59.599Z,29.21
2019-04-30T17:10:50.481Z,29.40
2019-04-30T17:13:41.297Z,29.85
2019-04-30T17:16:14.466Z,29.02
2019-04-30T17:18:43.679Z,27.47
2019-04-30T17:21:13.047Z,28.11
2019-04-30T17:23:42.222Z,27.53
2019-04-30T17:26:11.559Z,25.80
2019-04-30T17:28:40.847Z,25.69
2019-04-30T17:31:10.192Z,26.87
2019-04-30T17:33:39.485Z,28.89
2019-04-30T17:36:11.095Z,30.03
2019-04-30T17:38:42.091Z,30.83
2019-04-30T17:41:11.317Z,31.91
2019-04-30T17:43:41.780Z,33.66
2019-04-30T17:46:11.126Z,34.55
2019-04-30T17:48:41.587Z,34.92
2019-04-30T17:51:10.818Z,35.90
2019-04-30T17:53:58.981Z,35.98
2019-04-30T17:56:28.380Z,37.15
2019-04-30T17:58:57.599Z,37.50
2019-04-30T18:01:27.038Z,37.91
2019-04-30T18:03:56.233Z,38.46
2019-04-30T18:06:25.615Z,40.93
2019-04-30T18:08:54.836Z,41.19
2019-04-30T18:11:24.090Z,43.16
2019-04-30T18:13:53.499Z,44.30
2019-04-30T18:16:23.053Z,45.37
2019-04-30T18:18:59.206Z,46.65
2019-04-30T18:21:41.328Z,48.66
2019-04-30T18:24:23.918Z,50.27
2019-04-30T18:27:03.059Z,51.27
2019-04-30T18:29:32.269Z,52.64
2019-04-30T18:32:01.597Z,53.56
2019-04-30T18:34:30.947Z,53.92
2019-04-30T18:37:00.578Z,54.79
2019-04-30T18:39:29.937Z,55.25
2019-04-30T18:41:59.349Z,55.70
2019-04-30T18:44:29.561Z,56.67
2019-04-30T18:46:59.117Z,57.86
2019-04-30T18:49:28.785Z,59.88
2019-04-30T18:51:59.017Z,61.41
2019-04-30T18:54:28.963Z,62.86
2019-04-30T18:56:58.933Z,62.79
2019-04-30T18:59:28.234Z,62.98
2019-04-30T19:01:57.503Z,64.55
2019-04-30T19:04:28.694Z,64.55
2019-04-30T19:07:01.031Z,65.59
2019-04-30T19:09:44.230Z,65.96
2019-04-30T19:12:32.204Z,65.96
2019-04-30T19:15:20.546Z,67.37
2019-04-30T19:18:02.835Z,67.64
2019-04-30T19:20:38.603Z,68.20
2019-04-30T19:23:10.006Z,68.71
2019-04-30T19:25:39.100Z,69.08
2019-04-30T19:28:12.198Z,69.00
2019-04-30T19:30:39.437Z,69.53
2019-04-30T19:33:08.799Z,70.00
2019-04-30T19:35:37.991Z,72.43
2019-04-30T19:38:09.187Z,70.01
2019-04-30T19:40:39.204Z,70.76
2019-04-30T19:43:08.938Z,71.41
2019-04-30T19:45:38.232Z,71.78
2019-04-30T19:48:09.009Z,71.90
2019-04-30T19:50:38.494Z,72.41
2019-04-30T19:53:08.815Z,72.19
2019-04-30T19:55:39.383Z,73.04
2019-04-30T19:58:10.730Z,73.41
2019-04-30T20:00:39.888Z,73.67
2019-04-30T20:03:09.097Z,73.87
2019-04-30T20:05:39.433Z,74.59
2019-04-30T20:08:11.030Z,75.70
2019-04-30T20:10:39.991Z,76.98
2019-04-30T20:13:10.787Z,76.97
2019-04-30T20:15:40.384Z,77.47
2019-04-30T20:18:09.614Z,76.93
2019-04-30T20:20:40.638Z,77.19
2019-04-30T20:23:09.875Z,76.75
2019-04-30T20:25:39.144Z,76.50
2019-04-30T20:28:08.541Z,77.14
2019-04-30T20:30:39.274Z,78.39
2019-04-30T20:33:09.108Z,79.61
2019-04-30T20:35:39.033Z,80.42
2019-04-30T20:38:34.542Z,79.95
2019-04-30T20:41:04.494Z,79.80
2019-04-30T20:43:33.706Z,80.67
2019-04-30T20:46:02.945Z,80.41
2019-04-30T20:48:32.243Z,80.71
2019-04-30T20:51:01.583Z,81.33
2019-04-30T20:53:30.822Z,82.12
2019-04-30T20:56:00.036Z,82.06
2019-04-30T20:58:29.328Z,81.53
2019-04-30T21:01:04.095Z,81.27
2019-04-30T21:03:29.699Z,81.61
2019-04-30T21:06:00.581Z,82.39
2019-04-30T21:08:29.920Z,82.53
2019-04-30T21:10:59.457Z,83.09
2019-04-30T21:13:29.482Z,83.45
2019-04-30T21:15:59.499Z,84.84
2019-04-30T21:18:32.137Z,85.45
2019-04-30T21:20:59.811Z,85.09
2019-04-30T21:23:29.386Z,85.18
2019-04-30T21:25:59.060Z,85.20
2019-04-30T21:28:29.716Z,85.17
2019-04-30T21:31:02.187Z,85.75
2019-04-30T21:33:41.179Z,86.41
2019-04-30T21:36:15.016Z,86.50
2019-04-30T21:38:44.215Z,86.46
2019-04-30T21:41:13.393Z,85.72
2019-04-30T21:43:42.592Z,86.27
2019-04-30T21:46:11.848Z,87.50
2019-04-30T21:48:42.588Z,87.21
2019-04-30T21:51:12.141Z,87.32
2019-04-30T21:53:41.392Z,87.04
2019-04-30T21:56:10.562Z,87.25
2019-04-30T21:58:39.798Z,86.97
2019-04-30T22:01:26.040Z,87.19
2019-04-30T22:03:55.479Z,87.48
2019-04-30T22:06:24.682Z,87.76
2019-04-30T22:08:53.972Z,87.75
2019-04-30T22:11:23.191Z,87.14
2019-04-30T22:13:52.423Z,87.45
2019-04-30T22:16:21.612Z,87.58
2019-04-30T22:18:51.102Z,88.42
2019-04-30T22:21:20.429Z,88.24
2019-04-30T22:23:49.673Z,88.77
2019-04-30T22:26:18.899Z,89.82
2019-04-30T22:28:49.344Z,89.99
2019-04-30T22:31:19.706Z,90.59
2019-04-30T22:33:49.186Z,91.04
2019-04-30T22:36:28.835Z,91.02
2019-04-30T22:39:15.512Z,90.79
2019-04-30T22:41:44.852Z,90.32
2019-04-30T22:44:14.125Z,90.81
2019-04-30T22:46:43.307Z,91.10
2019-04-30T22:49:12.596Z,90.85
2019-04-30T22:51:41.800Z,90.88
2019-04-30T22:54:10.926Z,91.05
2019-04-30T22:56:40.094Z,91.09
2019-04-30T22:59:09.261Z,91.00
2019-04-30T23:01:47.678Z,91.02
2019-04-30T23:04:25.494Z,91.39
2019-04-30T23:06:54.676Z,91.58
2019-04-30T23:09:23.832Z,91.48
2019-04-30T23:11:53.351Z,91.29
2019-04-30T23:14:22.537Z,91.58
2019-04-30T23:16:51.731Z,91.98
2019-04-30T23:19:20.912Z,92.30
2019-04-30T23:21:50.112Z,92.07
2019-04-30T23:24:19.255Z,92.25
2019-04-30T23:26:48.626Z,92.29
2019-04-30T23:29:17.792Z,92.49
2019-04-30T23:31:46.978Z,92.11
2019-04-30T23:34:18.200Z,92.26
2019-04-30T23:36:47.092Z,93.35
2019-04-30T23:39:16.296Z,93.83
2019-04-30T23:41:45.506Z,93.61
2019-04-30T23:44:14.669Z,93.75
2019-04-30T23:46:43.856Z,93.20
2019-04-30T23:49:13.026Z,92.90
2019-04-30T23:51:42.318Z,92.49
2019-04-30T23:54:11.502Z,92.39
2019-04-30T23:56:40.693Z,92.27
2019-04-30T23:59:09.847Z,92.42
